createdAt,value
2022-11-29T00:00:59.767Z,100223.44
2022-11-29T00:06:06.664Z,100229.28
2022-11-29T00:11:10.632Z,100229.78
2022-11-29T00:16:13.384Z,100230.88
2022-11-29T00:21:17.497Z,100226.13
2022-11-29T00:26:20.416Z,100226.25
2022-11-29T00:31:23.873Z,100218.56
2022-11-29T00:36:28.150Z,100218.22
2022-11-29T00:41:31.383Z,100223.44
2022-11-29T00:46:34.366Z,100220.25
2022-11-29T00:51:38.552Z,100228.09
2022-11-29T00:56:41.646Z,100214.03
2022-11-29T01:01:44.677Z,100220.03
2022-11-29T01:06:51.249Z,100218.56
2022-11-29T01:11:54.045Z,100223.06
2022-11-29T01:16:57.096Z,100228.94
2022-11-29T01:22:01.321Z,100229.41
2022-11-29T01:27:04.094Z,100229.91
2022-11-29T01:32:07.042Z,100228.09
2022-11-29T01:37:11.153Z,100224.44
2022-11-29T01:42:14.024Z,100236.34
2022-11-29T01:47:16.998Z,100230.97
2022-11-29T01:52:22.418Z,100232.47
2022-11-29T01:57:25.359Z,100234.19
2022-11-29T02:02:30.342Z,100236.13
2022-11-29T02:07:34.612Z,100236.13
2022-11-29T02:12:41.566Z,100224.69
2022-11-29T02:17:53.161Z,100233.31
2022-11-29T02:22:58.392Z,100237.91
2022-11-29T02:28:31.232Z,100240.81
2022-11-29T02:33:59.182Z,100245.22
2022-11-29T02:39:09.118Z,100238.78
2022-11-29T02:44:29.763Z,100242.53
2022-11-29T02:49:42.737Z,100250.81
2022-11-29T02:54:48.061Z,100242.78
2022-11-29T02:59:53.857Z,100244.34
2022-11-29T03:05:00.898Z,100250.09
2022-11-29T03:10:06.311Z,100253.81
2022-11-29T03:15:18.116Z,100251.16
2022-11-29T03:20:30.343Z,100250.53
2022-11-29T03:25:34.983Z,100256.34
2022-11-29T03:30:38.771Z,100260.38
2022-11-29T03:35:44.900Z,100267.44
2022-11-29T03:40:51.288Z,100260.69
2022-11-29T03:45:57.105Z,100263.16
2022-11-29T03:51:04.574Z,100267.25
2022-11-29T03:56:23.997Z,100263.97
2022-11-29T04:01:56.928Z,100264.25
2022-11-29T04:07:06.922Z,100266.28
2022-11-29T04:12:37.734Z,100274.19
2022-11-29T04:17:55.599Z,100269.03
2022-11-29T04:23:34.553Z,100276.91
2022-11-29T04:29:00.636Z,100275.19
2022-11-29T04:34:19.270Z,100283.47
2022-11-29T04:39:33.451Z,100286.56
2022-11-29T04:44:44.532Z,100286.56
2022-11-29T04:49:56.721Z,100286.81
2022-11-29T04:55:03.356Z,100291.63
2022-11-29T05:00:09.950Z,100293.66
2022-11-29T05:05:19.512Z,100306.31
2022-11-29T05:10:26.305Z,100301.94
2022-11-29T05:16:05.622Z,100305.78
2022-11-29T05:21:10.648Z,100316.81
2022-11-29T05:26:15.984Z,100318.75
2022-11-29T05:31:44.553Z,100320.66
2022-11-29T05:36:50.133Z,100320.03
2022-11-29T05:42:05.382Z,100323.81
2022-11-29T05:47:10.704Z,100335.25
2022-11-29T05:52:24.300Z,100319.50
2022-11-29T05:57:30.274Z,100327.31
2022-11-29T06:02:46.765Z,100338.34
2022-11-29T06:07:52.992Z,100342.72
2022-11-29T06:13:00.304Z,100352.69
2022-11-29T06:18:15.120Z,100360.81
2022-11-29T06:23:24.605Z,100353.03
2022-11-29T06:28:33.033Z,100366.41
2022-11-29T06:33:41.609Z,100366.28
2022-11-29T06:38:44.845Z,100369.19
2022-11-29T06:43:48.232Z,100382.66
2022-11-29T06:48:57.851Z,100373.13
2022-11-29T06:54:10.023Z,100388.84
2022-11-29T06:59:18.335Z,100386.41
2022-11-29T07:04:46.376Z,100390.03
2022-11-29T07:09:50.622Z,100392.94
2022-11-29T07:14:54.258Z,100404.28
2022-11-29T07:20:04.550Z,100396.47
2022-11-29T07:25:13.556Z,100404.50
2022-11-29T07:30:18.018Z,100408.88
2022-11-29T07:35:24.015Z,100419.25
2022-11-29T07:40:34.440Z,100421.81
2022-11-29T07:45:40.155Z,100422.13
2022-11-29T07:50:44.435Z,100428.34
2022-11-29T07:55:47.354Z,100428.25
2022-11-29T08:00:50.208Z,100432.72
2022-11-29T08:05:54.739Z,100431.66
2022-11-29T08:10:57.486Z,100429.19
2022-11-29T08:16:00.343Z,100427.91
2022-11-29T08:21:08.108Z,100442.16
2022-11-29T08:26:10.929Z,100437.00
2022-11-29T08:31:14.041Z,100437.66
2022-11-29T08:36:19.029Z,100443.97
2022-11-29T08:41:21.807Z,100446.16
2022-11-29T08:46:44.785Z,100442.78
2022-11-29T08:51:48.937Z,100448.72
2022-11-29T09:02:14.571Z,100462.88
2022-11-29T09:07:18.917Z,100465.38
2022-11-29T09:12:21.779Z,100465.91
2022-11-29T09:17:24.606Z,100474.63
2022-11-29T09:22:28.784Z,100474.19
2022-11-29T09:27:32.056Z,100475.91
2022-11-29T09:32:35.499Z,100474.94
2022-11-29T09:37:42.894Z,100477.44
2022-11-29T09:42:51.053Z,100480.88
2022-11-29T09:47:59.866Z,100489.53
2022-11-29T09:53:15.943Z,100484.00
2022-11-29T09:58:20.765Z,100489.13
2022-11-29T10:03:25.406Z,100482.72
2022-11-29T10:08:34.806Z,100491.50
2022-11-29T10:13:40.423Z,100499.22
2022-11-29T10:18:45.270Z,100496.44
2022-11-29T10:23:50.220Z,100501.78
2022-11-29T10:28:55.961Z,100498.47
2022-11-29T10:34:00.802Z,100503.94
2022-11-29T10:39:12.986Z,100500.19
2022-11-29T10:44:17.110Z,100498.28
2022-11-29T10:49:20.769Z,100502.66
2022-11-29T10:54:33.648Z,100497.22
2022-11-29T10:59:36.401Z,100497.22
2022-11-29T11:04:45.733Z,100492.91
2022-11-29T11:09:50.735Z,100500.94
2022-11-29T11:14:53.948Z,100496.56
2022-11-29T11:19:58.111Z,100499.13
2022-11-29T11:25:03.122Z,100499.13
2022-11-29T11:30:06.955Z,100503.72
2022-11-29T11:35:22.446Z,100499.13
2022-11-29T11:40:28.965Z,100508.78
2022-11-29T11:45:34.181Z,100515.00
2022-11-29T11:50:41.528Z,100511.28
2022-11-29T11:55:56.773Z,100514.69
2022-11-29T12:01:04.736Z,100513.84
2022-11-29T12:06:18.753Z,100507.75
2022-11-29T12:11:22.969Z,100516.41
2022-11-29T12:16:28.488Z,100522.72
2022-11-29T12:21:34.368Z,100526.38
2022-11-29T12:32:15.795Z,100538.03
2022-11-29T12:37:21.823Z,100536.41
2022-11-29T12:42:36.578Z,100535.53
2022-11-29T12:47:50.333Z,100540.88
2022-11-29T12:52:59.612Z,100535.53
2022-11-29T12:58:05.921Z,100539.19
2022-11-29T13:03:22.455Z,100544.19
2022-11-29T13:08:46.913Z,100549.06
2022-11-29T13:13:52.807Z,100557.13
2022-11-29T13:18:58.081Z,100556.31
2022-11-29T13:24:10.537Z,100561.41
2022-11-29T13:29:17.966Z,100554.66
2022-11-29T13:34:23.217Z,100555.16
2022-11-29T13:39:33.762Z,100559.34
2022-11-29T13:44:39.338Z,100568.00
2022-11-29T13:49:53.420Z,100576.72
2022-11-29T13:55:07.353Z,100581.97
2022-11-29T14:00:28.940Z,100580.44
2022-11-29T14:05:32.397Z,100577.19
2022-11-29T14:10:35.178Z,100580.97
2022-11-29T14:15:39.393Z,100581.16
2022-11-29T14:20:46.503Z,100594.13
2022-11-29T14:26:28.512Z,100582.69
2022-11-29T14:31:56.113Z,100579.91
2022-11-29T14:37:00.569Z,100586.88
2022-11-29T14:42:07.767Z,100585.91
2022-11-29T14:47:21.224Z,100594.38
2022-11-29T14:52:32.013Z,100596.97
2022-11-29T14:58:11.339Z,100590.97
2022-11-29T15:03:19.913Z,100607.25
2022-11-29T15:08:32.138Z,100598.16
2022-11-29T15:13:36.672Z,100610.59
2022-11-29T15:19:08.254Z,100609.63
2022-11-29T15:24:11.871Z,100613.19
2022-11-29T15:29:15.419Z,100624.25
2022-11-29T15:34:21.813Z,100625.97
2022-11-29T15:39:26.230Z,100627.59
2022-11-29T15:44:29.058Z,100638.88
2022-11-29T15:49:33.217Z,100635.75
2022-11-29T15:54:38.665Z,100639.41
2022-11-29T15:59:42.831Z,100645.88
2022-11-29T16:04:47.447Z,100645.00
2022-11-29T16:09:51.649Z,100652.16
2022-11-29T16:14:55.925Z,100657.44
2022-11-29T16:20:23.560Z,100666.47
2022-11-29T16:25:27.450Z,100674.63
2022-11-29T16:30:30.204Z,100675.25
2022-11-29T16:35:34.884Z,100679.88
2022-11-29T16:40:37.860Z,100689.50
2022-11-29T16:45:41.200Z,100681.91
2022-11-29T16:50:46.060Z,100694.97
2022-11-29T16:55:48.902Z,100687.91
2022-11-29T17:00:52.079Z,100698.63
2022-11-29T17:05:56.329Z,100692.09
2022-11-29T17:10:59.197Z,100692.09
2022-11-29T17:16:01.982Z,100701.09
2022-11-29T17:21:06.420Z,100688.13
2022-11-29T17:26:10.102Z,100700.16
2022-11-29T17:31:13.184Z,100707.53
2022-11-29T17:36:18.189Z,100698.94
2022-11-29T17:41:22.623Z,100702.47
2022-11-29T17:46:26.065Z,100708.41
2022-11-29T17:56:53.065Z,100727.38
2022-11-29T18:01:55.912Z,100721.59
2022-11-29T18:07:01.480Z,100725.56
2022-11-29T18:12:04.593Z,100731.25
2022-11-29T18:17:07.413Z,100730.16
2022-11-29T18:22:11.697Z,100732.84
2022-11-29T18:27:14.701Z,100732.22
2022-11-29T18:32:17.555Z,100728.91
2022-11-29T18:37:47.471Z,100744.13
2022-11-29T18:42:44.524Z,100747.13
2022-11-29T18:47:47.503Z,100743.56
2022-11-29T18:52:54.073Z,100748.84
2022-11-29T18:57:56.857Z,100760.56
2022-11-29T19:02:59.702Z,100749.50
2022-11-29T19:08:03.853Z,100756.47
2022-11-29T19:13:06.665Z,100761.00
2022-11-29T19:18:09.525Z,100756.59
2022-11-29T19:23:13.731Z,100760.56
2022-11-29T19:28:17.135Z,100762.91
2022-11-29T19:33:19.916Z,100760.41
2022-11-29T19:38:24.066Z,100769.75
2022-11-29T19:43:26.867Z,100763.94
2022-11-29T19:48:29.717Z,100772.00
2022-11-29T19:53:34.325Z,100769.31
2022-11-29T19:58:37.345Z,100765.78
2022-11-29T20:03:40.399Z,100769.19
2022-11-29T20:08:44.750Z,100775.97
2022-11-29T20:13:48.202Z,100775.97
2022-11-29T20:18:51.554Z,100780.59
2022-11-29T20:23:57.344Z,100791.09
2022-11-29T20:29:00.322Z,100786.38
2022-11-29T20:34:03.349Z,100793.47
2022-11-29T20:39:12.710Z,100795.72
2022-11-29T20:44:18.189Z,100799.91
2022-11-29T20:49:21.527Z,100795.75
2022-11-29T20:54:25.774Z,100786.13
2022-11-29T20:59:28.679Z,100792.44
2022-11-29T21:04:58.529Z,100801.88
2022-11-29T21:10:02.703Z,100802.63
2022-11-29T21:15:06.650Z,100808.63
2022-11-29T21:20:10.187Z,100815.50
2022-11-29T21:25:16.650Z,100813.69
2022-11-29T21:30:20.957Z,100820.66
2022-11-29T21:35:23.701Z,100814.44
2022-11-29T21:40:27.906Z,100815.81
2022-11-29T21:45:30.648Z,100824.63
2022-11-29T21:50:33.386Z,100827.19
2022-11-29T21:55:37.558Z,100830.84
2022-11-29T22:00:40.319Z,100839.13
2022-11-29T22:05:43.123Z,100837.09
2022-11-29T22:10:47.217Z,100830.97
2022-11-29T22:15:50.011Z,100829.34
2022-11-29T22:20:52.913Z,100835.13
2022-11-29T22:25:57.057Z,100832.88
2022-11-29T22:31:06.639Z,100839.63
2022-11-29T22:36:10.634Z,100843.09
2022-11-29T22:41:15.242Z,100843.09
2022-11-29T22:46:19.633Z,100836.63
2022-11-29T22:51:23.224Z,100841.91
2022-11-29T22:56:28.260Z,100838.44
2022-11-29T23:01:31.958Z,100841.91
2022-11-29T23:06:35.709Z,100832.22
2022-11-29T23:11:39.898Z,100840.94
2022-11-29T23:16:42.762Z,100838.13
2022-11-29T23:21:46.235Z,100834.78
2022-11-29T23:26:50.484Z,100839.22
2022-11-29T23:31:53.393Z,100840.09
2022-11-29T23:36:56.417Z,100836.31
2022-11-29T23:42:00.740Z,100839.22
2022-11-29T23:47:03.552Z,100844.69
2022-11-29T23:52:06.404Z,100833.84
2022-11-29T23:57:10.626Z,100841.69
